createdAt,value
2022-09-13T00:01:49.051Z,0.10
2022-09-13T00:04:15.653Z,0.20
2022-09-13T00:06:42.252Z,0.15
2022-09-13T00:09:08.780Z,0.20
2022-09-13T00:11:35.327Z,0.20
2022-09-13T00:14:02.631Z,0.10
2022-09-13T00:16:29.465Z,0.20
2022-09-13T00:18:56.501Z,0.20
2022-09-13T00:21:24.166Z,0.10
2022-09-13T00:23:52.033Z,0.10
2022-09-13T00:26:23.167Z,0.10
2022-09-13T00:28:53.840Z,0.20
2022-09-13T00:31:21.161Z,0.10
2022-09-13T00:33:47.649Z,0.10
2022-09-13T00:36:15.504Z,0.20
2022-09-13T00:38:42.862Z,0.20
2022-09-13T00:41:13.911Z,0.10
2022-09-13T00:43:40.383Z,0.10
2022-09-13T00:46:06.863Z,0.20
2022-09-13T00:48:34.596Z,0.10
2022-09-13T00:51:02.527Z,0.10
2022-09-13T00:53:30.721Z,0.10
2022-09-13T00:55:59.356Z,0.10
2022-09-13T00:58:29.359Z,0.10
2022-09-13T01:00:57.886Z,0.20
2022-09-13T01:03:25.309Z,0.10
2022-09-13T01:05:57.158Z,0.10
2022-09-13T01:08:23.759Z,0.10
2022-09-13T01:10:54.317Z,0.10
2022-09-13T01:13:23.231Z,0.10
2022-09-13T01:15:49.759Z,0.20
2022-09-13T01:18:16.743Z,0.20
2022-09-13T01:20:55.618Z,0.10
2022-09-13T01:23:28.208Z,0.10
2022-09-13T01:26:09.742Z,0.20
2022-09-13T01:28:48.099Z,0.10
2022-09-13T01:31:14.711Z,0.20
2022-09-13T01:33:47.383Z,0.20
2022-09-13T01:36:13.876Z,0.10
2022-09-13T01:38:46.464Z,0.20
2022-09-13T01:41:22.458Z,0.10
2022-09-13T01:43:58.101Z,0.10
2022-09-13T01:46:47.270Z,0.20
2022-09-13T01:49:37.087Z,0.10
2022-09-13T01:52:07.770Z,0.20
2022-09-13T01:54:37.472Z,0.15
2022-09-13T01:57:12.858Z,0.10
2022-09-13T02:00:02.842Z,0.20
2022-09-13T02:02:29.462Z,0.15
2022-09-13T02:05:00.929Z,0.20
2022-09-13T02:07:36.329Z,0.10
2022-09-13T02:10:06.457Z,0.10
2022-09-13T02:12:34.658Z,0.20
2022-09-13T02:15:04.400Z,0.10
2022-09-13T02:17:37.681Z,0.10
2022-09-13T02:20:08.528Z,0.10
2022-09-13T02:22:37.806Z,0.10
2022-09-13T02:25:09.762Z,0.20
2022-09-13T02:27:37.836Z,0.20
2022-09-13T02:30:08.590Z,0.10
2022-09-13T02:32:40.734Z,0.10
2022-09-13T02:35:07.262Z,0.20
2022-09-13T02:37:36.368Z,0.20
2022-09-13T02:40:05.886Z,0.10
2022-09-13T02:42:38.060Z,0.10
2022-09-13T02:45:06.179Z,0.20
2022-09-13T02:47:41.184Z,0.10
2022-09-13T02:50:07.760Z,0.10
2022-09-13T02:52:39.764Z,0.10
2022-09-13T02:55:09.442Z,0.20
2022-09-13T02:57:41.221Z,0.20
2022-09-13T03:00:08.583Z,0.10
2022-09-13T03:02:36.664Z,0.10
2022-09-13T03:05:03.820Z,0.20
2022-09-13T03:07:31.075Z,0.10
2022-09-13T03:10:00.425Z,0.20
2022-09-13T03:12:36.167Z,0.20
2022-09-13T03:15:02.622Z,0.20
2022-09-13T03:17:42.382Z,0.10
2022-09-13T03:20:19.278Z,0.20
2022-09-13T03:22:57.717Z,0.17
2022-09-13T03:25:27.215Z,0.20
2022-09-13T03:28:09.087Z,0.13
2022-09-13T03:30:37.257Z,0.10
2022-09-13T03:33:11.840Z,0.20
2022-09-13T03:35:57.225Z,0.10
2022-09-13T03:38:32.816Z,0.10
2022-09-13T03:40:59.296Z,0.20
2022-09-13T03:43:35.601Z,0.10
2022-09-13T03:46:05.239Z,0.10
2022-09-13T03:48:32.930Z,0.20
2022-09-13T03:50:59.411Z,0.20
2022-09-13T03:53:28.376Z,0.10
2022-09-13T03:55:54.994Z,0.20
2022-09-13T03:58:21.988Z,0.20
2022-09-13T04:00:48.982Z,0.10
2022-09-13T04:03:15.745Z,0.20
2022-09-13T04:05:42.367Z,0.20
2022-09-13T04:08:09.023Z,0.20
2022-09-13T04:10:36.389Z,0.10
2022-09-13T04:13:03.412Z,0.10
2022-09-13T04:15:31.441Z,0.10
2022-09-13T04:17:58.298Z,0.10
2022-09-13T04:20:25.920Z,0.15
2022-09-13T04:22:53.301Z,0.10
2022-09-13T04:25:20.640Z,0.20
2022-09-13T04:27:47.255Z,0.20
2022-09-13T04:30:14.008Z,1.70
2022-09-13T04:32:42.449Z,1.58
2022-09-13T04:35:09.371Z,2.10
2022-09-13T04:37:35.909Z,1.90
2022-09-13T04:40:02.547Z,2.05
2022-09-13T04:42:29.106Z,1.83
2022-09-13T04:44:55.875Z,2.00
2022-09-13T04:47:22.772Z,1.83
2022-09-13T04:49:49.266Z,1.80
2022-09-13T04:52:15.830Z,1.70
2022-09-13T04:54:42.426Z,1.85
2022-09-13T04:57:08.940Z,2.10
2022-09-13T04:59:35.531Z,1.77
2022-09-13T05:02:01.988Z,1.83
2022-09-13T05:04:28.579Z,2.00
2022-09-13T05:06:55.100Z,2.00
2022-09-13T05:09:21.693Z,2.20
2022-09-13T05:11:48.221Z,2.38
2022-09-13T05:14:14.845Z,1.80
2022-09-13T05:16:41.706Z,2.08
2022-09-13T05:19:09.050Z,2.17
2022-09-13T05:21:35.999Z,2.20
2022-09-13T05:24:02.624Z,2.10
2022-09-13T05:26:31.380Z,2.40
2022-09-13T05:28:59.018Z,1.88
2022-09-13T05:31:28.253Z,1.58
2022-09-13T05:33:56.680Z,1.65
2022-09-13T05:36:23.239Z,1.83
2022-09-13T05:38:58.077Z,2.08
2022-09-13T05:41:33.381Z,2.33
2022-09-13T05:44:07.946Z,2.17
2022-09-13T05:46:38.780Z,2.10
2022-09-13T05:49:05.651Z,2.05
2022-09-13T05:51:33.168Z,2.13
2022-09-13T05:54:00.100Z,2.63
2022-09-13T05:56:28.577Z,2.20
2022-09-13T05:58:55.709Z,2.00
2022-09-13T06:01:23.498Z,2.03
2022-09-13T06:03:50.710Z,2.00
2022-09-13T06:06:17.540Z,1.90
2022-09-13T06:08:44.241Z,2.05
2022-09-13T06:11:11.761Z,1.70
2022-09-13T06:13:38.726Z,2.15
2022-09-13T06:16:06.634Z,2.40
2022-09-13T06:18:33.451Z,2.30
2022-09-13T06:21:01.001Z,1.70
2022-09-13T06:23:28.260Z,2.20
2022-09-13T06:26:04.940Z,1.85
2022-09-13T06:28:35.480Z,1.95
2022-09-13T06:31:06.116Z,2.45
2022-09-13T06:33:33.890Z,2.25
2022-09-13T06:36:01.081Z,2.25
2022-09-13T06:38:27.630Z,2.92
2022-09-13T06:41:06.396Z,2.30
2022-09-13T06:43:33.726Z,2.60
2022-09-13T06:46:01.333Z,2.05
2022-09-13T06:48:31.235Z,2.00
2022-09-13T06:50:59.227Z,2.35
2022-09-13T06:53:26.233Z,2.35
2022-09-13T06:56:00.543Z,2.95
2022-09-13T06:58:29.475Z,2.60
2022-09-13T07:01:05.026Z,2.10
2022-09-13T07:03:31.547Z,2.45
2022-09-13T07:05:57.998Z,2.30
2022-09-13T07:08:24.550Z,2.70
2022-09-13T07:10:50.988Z,2.30
2022-09-13T07:13:17.435Z,2.72
2022-09-13T07:15:44.261Z,2.50
2022-09-13T07:18:10.847Z,2.80
2022-09-13T07:20:37.352Z,2.67
2022-09-13T07:23:04.970Z,2.67
2022-09-13T07:25:31.440Z,2.42
2022-09-13T07:27:57.886Z,2.58
2022-09-13T07:30:26.778Z,2.75
2022-09-13T07:32:53.249Z,2.20
2022-09-13T07:35:19.779Z,2.40
2022-09-13T07:37:46.810Z,2.60
2022-09-13T07:40:14.008Z,2.33
2022-09-13T07:42:40.589Z,2.53
2022-09-13T07:45:07.380Z,2.47
2022-09-13T07:47:33.959Z,3.30
2022-09-13T07:50:00.429Z,6.25
2022-09-13T07:52:28.779Z,5.10
2022-09-13T07:54:55.309Z,3.88
2022-09-13T07:57:22.069Z,3.85
2022-09-13T07:59:48.560Z,3.50
2022-09-13T08:02:16.162Z,3.05
2022-09-13T08:04:42.660Z,3.20
2022-09-13T08:07:09.210Z,2.70
2022-09-13T08:09:35.680Z,2.60
2022-09-13T08:12:02.289Z,2.50
2022-09-13T08:14:28.798Z,2.25
2022-09-13T08:16:55.910Z,2.38
2022-09-13T08:19:22.569Z,2.17
2022-09-13T08:21:49.119Z,3.03
2022-09-13T08:24:17.090Z,2.22
2022-09-13T08:26:43.852Z,2.38
2022-09-13T08:29:11.129Z,2.40
2022-09-13T08:31:37.960Z,2.30
2022-09-13T08:34:04.454Z,2.42
2022-09-13T08:36:30.984Z,2.50
2022-09-13T08:38:59.334Z,2.40
2022-09-13T08:41:31.687Z,2.13
2022-09-13T08:44:17.130Z,2.15
2022-09-13T08:46:45.841Z,2.58
2022-09-13T08:49:19.319Z,3.00
2022-09-13T08:51:49.774Z,1.92
2022-09-13T08:54:17.429Z,2.08
2022-09-13T08:56:43.889Z,2.33
2022-09-13T08:59:16.479Z,2.08
2022-09-13T09:01:45.858Z,2.38
2022-09-13T09:04:17.989Z,2.40
2022-09-13T09:06:44.529Z,2.60
2022-09-13T09:09:15.392Z,2.25
2022-09-13T09:11:46.241Z,2.03
2022-09-13T09:14:12.729Z,1.80
2022-09-13T09:16:46.067Z,1.92
2022-09-13T09:19:15.763Z,2.08
2022-09-13T09:21:43.119Z,1.92
2022-09-13T09:24:15.382Z,2.17
2022-09-13T09:26:41.917Z,2.00
2022-09-13T09:29:11.189Z,2.10
2022-09-13T09:31:45.339Z,1.65
2022-09-13T09:34:21.090Z,2.20
2022-09-13T09:36:55.059Z,2.00
2022-09-13T09:39:21.659Z,1.98
2022-09-13T09:41:48.120Z,2.00
2022-09-13T09:44:21.800Z,2.17
2022-09-13T09:46:50.811Z,2.22
2022-09-13T09:49:38.859Z,2.05
2022-09-13T09:52:06.879Z,2.30
2022-09-13T09:54:35.180Z,2.50
2022-09-13T09:57:01.921Z,1.92
2022-09-13T09:59:29.556Z,2.00
2022-09-13T10:01:58.051Z,2.08
2022-09-13T10:04:25.684Z,1.45
2022-09-13T10:07:11.466Z,2.35
2022-09-13T10:09:52.074Z,2.05
2022-09-13T10:12:26.380Z,1.83
2022-09-13T10:15:02.654Z,2.13
2022-09-13T10:17:29.197Z,2.08
2022-09-13T10:20:20.170Z,2.00
2022-09-13T10:23:06.666Z,2.15
2022-09-13T10:25:33.230Z,1.85
2022-09-13T10:28:00.550Z,2.00
2022-09-13T10:30:37.403Z,2.13
2022-09-13T10:33:05.132Z,2.00
2022-09-13T10:35:31.868Z,2.00
2022-09-13T10:37:58.467Z,1.98
2022-09-13T10:40:28.168Z,1.95
2022-09-13T10:42:57.552Z,1.85
2022-09-13T10:45:26.620Z,2.08
2022-09-13T10:47:55.199Z,1.92
2022-09-13T10:50:21.769Z,1.83
2022-09-13T10:52:55.397Z,2.00
2022-09-13T10:55:32.844Z,1.90
2022-09-13T10:58:02.340Z,1.80
2022-09-13T11:00:47.212Z,2.17
2022-09-13T11:03:32.527Z,1.67
2022-09-13T11:06:02.042Z,1.83
2022-09-13T11:08:37.811Z,1.83
2022-09-13T11:11:10.261Z,2.10
2022-09-13T11:13:36.721Z,1.90
2022-09-13T11:16:21.755Z,1.95
2022-09-13T11:18:54.175Z,1.83
2022-09-13T11:21:26.121Z,2.00
2022-09-13T11:23:59.575Z,1.92
2022-09-13T11:26:26.086Z,1.80
2022-09-13T11:28:55.622Z,1.88
2022-09-13T11:31:22.084Z,1.90
2022-09-13T11:33:48.656Z,2.28
2022-09-13T11:36:23.111Z,2.05
2022-09-13T11:39:13.599Z,1.80
2022-09-13T11:42:03.040Z,1.90
2022-09-13T11:44:29.559Z,1.90
2022-09-13T11:47:14.389Z,1.70
2022-09-13T11:49:52.742Z,2.00
2022-09-13T11:52:19.201Z,1.63
2022-09-13T11:54:59.371Z,1.95
2022-09-13T11:57:29.242Z,1.98
2022-09-13T12:00:25.843Z,1.80
2022-09-13T12:02:58.315Z,1.58
2022-09-13T12:05:27.781Z,1.90
2022-09-13T12:08:02.731Z,2.33
2022-09-13T12:10:32.261Z,1.63
2022-09-13T12:13:01.634Z,1.80
2022-09-13T12:15:28.191Z,1.42
2022-09-13T12:17:58.120Z,1.75
2022-09-13T12:20:33.325Z,1.70
2022-09-13T12:23:01.375Z,1.90
2022-09-13T12:26:03.476Z,1.75
2022-09-13T12:28:34.492Z,1.63
2022-09-13T12:31:11.763Z,1.70
2022-09-13T12:33:39.535Z,1.70
2022-09-13T12:36:17.595Z,1.70
2022-09-13T12:39:02.852Z,1.60
2022-09-13T12:41:47.906Z,1.60
2022-09-13T12:44:33.382Z,1.55
2022-09-13T12:47:13.261Z,1.80
2022-09-13T12:49:45.812Z,1.50
2022-09-13T12:52:24.472Z,1.58
2022-09-13T12:54:59.331Z,1.63
2022-09-13T12:57:25.901Z,1.50
2022-09-13T13:00:02.671Z,1.50
2022-09-13T13:02:29.173Z,1.70
2022-09-13T13:05:18.983Z,1.33
2022-09-13T13:07:50.984Z,1.70
2022-09-13T13:10:25.088Z,1.60
2022-09-13T13:12:51.612Z,1.55
2022-09-13T13:15:41.181Z,1.50
2022-09-13T13:18:26.461Z,1.38
2022-09-13T13:20:55.841Z,1.40
2022-09-13T13:23:35.764Z,2.00
2022-09-13T13:26:09.911Z,1.50
2022-09-13T13:28:45.745Z,2.35
2022-09-13T13:31:24.693Z,1.63
2022-09-13T13:33:53.281Z,1.38
2022-09-13T13:36:28.927Z,1.55
2022-09-13T13:38:56.091Z,1.67
2022-09-13T13:41:42.891Z,1.65
2022-09-13T13:44:15.491Z,1.65
2022-09-13T13:46:42.581Z,1.50
2022-09-13T13:49:27.832Z,1.40
2022-09-13T13:52:06.761Z,1.52
2022-09-13T13:54:42.571Z,2.40
2022-09-13T13:57:27.181Z,2.25
2022-09-13T13:59:55.271Z,2.50
2022-09-13T14:02:25.963Z,2.60
2022-09-13T14:05:01.551Z,2.45
2022-09-13T14:07:43.432Z,2.08
2022-09-13T14:10:25.032Z,2.00
2022-09-13T14:12:54.370Z,1.92
2022-09-13T14:15:26.792Z,1.75
2022-09-13T14:17:56.197Z,1.70
2022-09-13T14:20:25.221Z,1.70
2022-09-13T14:22:51.723Z,1.40
2022-09-13T14:25:22.521Z,1.95
2022-09-13T14:27:49.554Z,1.60
2022-09-13T14:30:20.722Z,1.73
2022-09-13T14:32:50.312Z,1.45
2022-09-13T14:35:36.941Z,1.25
2022-09-13T14:38:18.451Z,1.67
2022-09-13T14:40:48.722Z,1.50
2022-09-13T14:43:16.821Z,3.20
2022-09-13T14:45:44.271Z,1.80
2022-09-13T14:48:15.571Z,1.70
2022-09-13T14:50:49.713Z,1.58
2022-09-13T14:53:21.303Z,1.65
2022-09-13T14:55:55.943Z,1.48
2022-09-13T14:58:28.841Z,1.60
2022-09-13T15:00:55.451Z,1.20
2022-09-13T15:03:22.445Z,1.65
2022-09-13T15:05:57.379Z,1.50
2022-09-13T15:08:50.092Z,2.05
2022-09-13T15:11:27.598Z,1.73
2022-09-13T15:14:12.521Z,1.75
2022-09-13T15:16:48.986Z,1.70
2022-09-13T15:19:24.701Z,1.70
2022-09-13T15:21:51.465Z,1.58
2022-09-13T15:24:36.218Z,1.60
2022-09-13T15:27:04.098Z,1.60
2022-09-13T15:29:34.959Z,1.73
2022-09-13T15:32:02.441Z,1.60
2022-09-13T15:34:29.481Z,1.60
2022-09-13T15:37:02.245Z,1.83
2022-09-13T15:39:28.835Z,1.45
2022-09-13T15:41:57.095Z,1.65
2022-09-13T15:44:23.842Z,1.67
2022-09-13T15:46:54.658Z,1.92
2022-09-13T15:49:22.791Z,1.48
2022-09-13T15:51:56.391Z,1.70
2022-09-13T15:54:23.161Z,1.63
2022-09-13T15:56:51.901Z,1.67
2022-09-13T15:59:20.171Z,1.80
2022-09-13T16:01:47.864Z,1.80
2022-09-13T16:04:15.051Z,1.92
2022-09-13T16:06:41.751Z,5.68
2022-09-13T16:09:21.471Z,5.80
2022-09-13T16:11:49.071Z,3.95
2022-09-13T16:14:16.454Z,3.30
2022-09-13T16:16:43.621Z,8.65
2022-09-13T16:19:17.922Z,3.85
2022-09-13T16:21:44.549Z,3.13
2022-09-13T16:24:11.133Z,1.98
2022-09-13T16:26:38.174Z,3.47
2022-09-13T16:29:04.792Z,3.00
2022-09-13T16:31:31.816Z,2.80
2022-09-13T16:33:58.367Z,2.20
2022-09-13T16:36:24.931Z,2.40
2022-09-13T16:38:51.412Z,4.82
2022-09-13T16:41:17.929Z,3.47
2022-09-13T16:43:44.421Z,3.33
2022-09-13T16:46:11.598Z,2.38
2022-09-13T16:48:38.184Z,2.55
2022-09-13T16:51:09.505Z,2.83
2022-09-13T16:53:36.931Z,2.28
2022-09-13T16:56:11.129Z,2.03
2022-09-13T16:58:38.405Z,1.95
2022-09-13T17:04:10.905Z,1.83
2022-09-13T17:06:37.509Z,1.77
2022-09-13T17:09:05.755Z,1.95
2022-09-13T17:11:35.466Z,2.30
2022-09-13T17:14:04.677Z,2.10
2022-09-13T17:16:33.887Z,1.80
2022-09-13T17:19:01.839Z,1.83
2022-09-13T17:21:28.902Z,1.95
2022-09-13T17:23:55.795Z,1.77
2022-09-13T17:26:22.549Z,1.60
2022-09-13T17:28:49.109Z,1.90
2022-09-13T17:31:15.814Z,2.08
2022-09-13T17:33:42.629Z,1.80
2022-09-13T17:36:10.240Z,1.73
2022-09-13T17:38:37.433Z,1.73
2022-09-13T17:41:05.585Z,1.70
2022-09-13T17:43:32.373Z,2.00
2022-09-13T17:46:04.035Z,2.05
2022-09-13T17:48:30.740Z,2.15
2022-09-13T17:51:01.457Z,2.03
2022-09-13T17:53:28.177Z,1.95
2022-09-13T17:55:54.795Z,1.80
2022-09-13T17:58:24.035Z,2.10
2022-09-13T18:00:50.525Z,1.55
2022-09-13T18:03:17.103Z,1.90
2022-09-13T18:05:43.885Z,1.60
2022-09-13T18:08:10.547Z,1.75
2022-09-13T18:10:58.337Z,1.80
2022-09-13T18:13:25.126Z,1.48
2022-09-13T18:15:58.667Z,1.75
2022-09-13T18:18:25.256Z,1.80
2022-09-13T18:20:51.825Z,2.15
2022-09-13T18:23:18.806Z,1.90
2022-09-13T18:25:58.402Z,1.80
2022-09-13T18:28:29.340Z,2.00
2022-09-13T18:30:56.888Z,2.00
2022-09-13T18:33:23.745Z,2.00
2022-09-13T18:36:06.805Z,1.90
2022-09-13T18:38:34.747Z,2.22
2022-09-13T18:41:07.116Z,1.85
2022-09-13T18:43:35.195Z,2.17
2022-09-13T18:46:04.821Z,3.30
2022-09-13T18:48:32.886Z,1.90
2022-09-13T18:51:00.656Z,2.17
2022-09-13T18:53:34.438Z,2.15
2022-09-13T18:56:02.233Z,2.08
2022-09-13T18:58:32.702Z,1.98
2022-09-13T19:01:06.961Z,2.13
2022-09-13T19:03:34.068Z,1.98
2022-09-13T19:06:23.901Z,2.15
2022-09-13T19:08:51.020Z,1.50
2022-09-13T19:11:42.221Z,2.33
2022-09-13T19:14:05.560Z,1.88
2022-09-13T19:16:32.145Z,2.17
2022-09-13T19:18:58.984Z,2.03
2022-09-13T19:21:27.507Z,1.92
2022-09-13T19:24:00.334Z,2.10
2022-09-13T19:26:32.588Z,2.17
2022-09-13T19:29:03.790Z,1.90
2022-09-13T19:31:30.975Z,2.15
2022-09-13T19:33:57.825Z,2.40
2022-09-13T19:36:25.705Z,1.98
2022-09-13T19:38:55.934Z,2.10
2022-09-13T19:41:26.345Z,2.03
2022-09-13T19:43:57.518Z,2.30
2022-09-13T19:46:27.706Z,2.28
2022-09-13T19:48:55.137Z,2.03
2022-09-13T19:51:22.804Z,1.92
2022-09-13T19:53:57.412Z,1.90
2022-09-13T19:56:32.641Z,2.03
2022-09-13T19:58:59.766Z,2.20
2022-09-13T20:01:27.949Z,2.55
2022-09-13T20:03:55.664Z,2.40
2022-09-13T20:06:24.121Z,2.28
2022-09-13T20:08:51.309Z,2.13
2022-09-13T20:11:18.733Z,1.95
2022-09-13T20:13:46.583Z,2.45
2022-09-13T20:16:17.706Z,3.45
2022-09-13T20:18:44.955Z,2.70
2022-09-13T20:21:12.566Z,2.38
2022-09-13T20:23:39.615Z,2.55
2022-09-13T20:26:13.225Z,2.72
2022-09-13T20:28:39.827Z,2.70
2022-09-13T20:31:06.457Z,2.88
2022-09-13T20:33:32.994Z,2.72
2022-09-13T20:36:03.136Z,2.10
2022-09-13T20:38:29.567Z,1.70
2022-09-13T20:40:56.045Z,2.47
2022-09-13T20:43:22.748Z,2.00
2022-09-13T20:45:56.497Z,2.53
2022-09-13T20:48:23.185Z,2.30
2022-09-13T20:50:56.829Z,2.17
2022-09-13T20:53:23.395Z,2.30
2022-09-13T20:55:49.846Z,2.30
2022-09-13T20:58:16.905Z,2.10
2022-09-13T21:00:43.373Z,2.10
2022-09-13T21:03:11.249Z,2.20
2022-09-13T21:05:37.817Z,2.10
2022-09-13T21:08:23.235Z,2.15
2022-09-13T21:10:56.996Z,2.05
2022-09-13T21:13:23.467Z,2.20
2022-09-13T21:15:50.415Z,2.40
2022-09-13T21:18:17.906Z,2.53
2022-09-13T21:20:44.415Z,2.45
2022-09-13T21:23:10.836Z,2.20
2022-09-13T21:25:37.305Z,1.83
2022-09-13T21:28:03.767Z,2.33
2022-09-13T21:30:30.282Z,2.00
2022-09-13T21:32:56.751Z,2.42
2022-09-13T21:35:23.341Z,2.40
2022-09-13T21:37:49.827Z,3.05
2022-09-13T21:40:17.000Z,1.63
2022-09-13T21:42:43.549Z,2.45
2022-09-13T21:45:10.097Z,2.67
2022-09-13T21:47:36.574Z,2.33
2022-09-13T21:50:03.072Z,2.50
2022-09-13T21:52:29.423Z,2.50
2022-09-13T21:54:55.874Z,2.40
2022-09-13T21:57:22.856Z,2.83
2022-09-13T21:59:50.276Z,2.50
2022-09-13T22:02:16.964Z,2.25
2022-09-13T22:04:43.747Z,2.25
2022-09-13T22:07:10.299Z,2.38
2022-09-13T22:09:36.709Z,2.83
2022-09-13T22:12:03.404Z,2.35
2022-09-13T22:14:29.804Z,2.20
2022-09-13T22:16:56.788Z,2.30
2022-09-13T22:19:26.335Z,2.42
2022-09-13T22:21:54.360Z,2.17
2022-09-13T22:24:22.136Z,2.17
2022-09-13T22:26:49.715Z,2.20
2022-09-13T22:29:16.878Z,2.47
2022-09-13T22:31:44.097Z,2.38
2022-09-13T22:34:15.002Z,2.13
2022-09-13T22:36:41.826Z,2.53
2022-09-13T22:39:10.223Z,2.70
2022-09-13T22:41:36.896Z,2.53
2022-09-13T22:44:03.598Z,2.30
2022-09-13T22:46:31.323Z,2.85
2022-09-13T22:48:57.881Z,2.83
2022-09-13T22:51:24.791Z,2.20
2022-09-13T22:53:51.905Z,2.35
2022-09-13T22:56:20.467Z,2.50
2022-09-13T22:58:47.503Z,2.42
2022-09-13T23:01:18.319Z,2.30
2022-09-13T23:03:45.719Z,2.05
2022-09-13T23:06:13.287Z,2.15
2022-09-13T23:08:40.372Z,3.20
2022-09-13T23:11:14.740Z,2.25
2022-09-13T23:13:41.771Z,2.35
2022-09-13T23:16:09.668Z,1.67
2022-09-13T23:18:36.407Z,2.03
2022-09-13T23:21:03.279Z,2.28
2022-09-13T23:23:29.972Z,2.30
2022-09-13T23:26:02.861Z,2.45
2022-09-13T23:28:31.590Z,2.58
2022-09-13T23:31:07.243Z,2.53
2022-09-13T23:33:33.812Z,2.20
2022-09-13T23:36:00.407Z,2.17
2022-09-13T23:38:27.032Z,1.92
2022-09-13T23:40:55.496Z,2.50
2022-09-13T23:43:22.046Z,2.40
2022-09-13T23:45:48.610Z,2.20
2022-09-13T23:48:15.086Z,2.28
2022-09-13T23:50:41.702Z,2.42
2022-09-13T23:53:08.215Z,2.60
2022-09-13T23:55:34.806Z,2.58
2022-09-13T23:58:01.383Z,2.40
